YAYE/AYQ METAR and TAF weather

Enter ICAO airport designator
Station Type Date Time Source
YAYE METAR 2021/09/27 06:27 UTC NOAA

YAYE 270627Z AUTO 34016KT 9999 // NCD 33/M04 Q1006


Station Type Date Time Source
YAYE Decoded METAR 2021/09/27 06:27 UTC NOAA

Ayers Rock, Australia (YAYE) 25-11S 130-58E
Sep 27, 2021 - 02:27 AM EDT / 2021.09.27 0627 UTC
Wind: from the NNW (340 degrees) at 18 MPH (16 KT):0
Visibility: greater than 7 mile(s):0
Temperature: 91 F (33 C)
Dew Point: 24 F (-4 C)
Relative Humidity: 9%
Pressure (altimeter): 29.71 in. Hg (1006 hPa)
ob: YAYE 270627Z AUTO 34016KT 9999 // NCD 33/M04 Q1006
cycle: 6

Station Type Date Time Source
YAYE TAF UTC NOAA

Error!

Example: see airport list